sensor_id;sensor_type;location;lat;lon;timestamp;P1;durP1;ratioP1;P2;durP2;ratioP2
5454;SDS011;2750;49.050;9.250;2023-04-15T00:01:41;6.60;;;4.43;;
5454;SDS011;2750;49.050;9.250;2023-04-15T00:06:48;10.17;;;5.00;;
5454;SDS011;2750;49.050;9.250;2023-04-15T00:11:52;6.63;;;5.77;;
5454;SDS011;2750;49.050;9.250;2023-04-15T00:16:54;8.40;;;4.83;;
5454;SDS011;2750;49.050;9.250;2023-04-15T00:21:56;9.67;;;6.37;;
5454;SDS011;2750;49.050;9.250;2023-04-15T00:26:58;8.57;;;6.23;;
5454;SDS011;2750;49.050;9.250;2023-04-15T00:32:00;9.73;;;5.70;;
5454;SDS011;2750;49.050;9.250;2023-04-15T00:37:02;6.27;;;5.10;;
5454;SDS011;2750;49.050;9.250;2023-04-15T00:42:04;7.17;;;4.90;;
5454;SDS011;2750;49.050;9.250;2023-04-15T00:47:07;7.50;;;5.50;;
5454;SDS011;2750;49.050;9.250;2023-04-15T00:52:09;8.13;;;5.83;;
5454;SDS011;2750;49.050;9.250;2023-04-15T00:57:11;8.27;;;5.63;;
5454;SDS011;2750;49.050;9.250;2023-04-15T01:02:14;7.47;;;5.17;;
5454;SDS011;2750;49.050;9.250;2023-04-15T01:07:15;7.10;;;5.67;;
5454;SDS011;2750;49.050;9.250;2023-04-15T01:12:17;5.77;;;4.80;;
5454;SDS011;2750;49.050;9.250;2023-04-15T01:17:21;9.27;;;5.50;;
5454;SDS011;2750;49.050;9.250;2023-04-15T01:22:24;5.90;;;4.53;;
5454;SDS011;2750;49.050;9.250;2023-04-15T01:27:29;7.77;;;4.90;;
5454;SDS011;2750;49.050;9.250;2023-04-15T01:32:31;7.67;;;5.23;;
5454;SDS011;2750;49.050;9.250;2023-04-15T01:37:32;5.33;;;4.83;;
5454;SDS011;2750;49.050;9.250;2023-04-15T01:42:36;6.93;;;4.80;;
5454;SDS011;2750;49.050;9.250;2023-04-15T01:47:37;8.37;;;4.70;;
5454;SDS011;2750;49.050;9.250;2023-04-15T01:52:39;6.43;;;4.30;;
5454;SDS011;2750;49.050;9.250;2023-04-15T01:57:42;6.60;;;4.53;;
5454;SDS011;2750;49.050;9.250;2023-04-15T02:02:44;8.97;;;5.13;;
5454;SDS011;2750;49.050;9.250;2023-04-15T02:07:45;6.80;;;4.67;;
5454;SDS011;2750;49.050;9.250;2023-04-15T02:12:49;5.33;;;4.30;;
5454;SDS011;2750;49.050;9.250;2023-04-15T02:17:51;8.17;;;5.87;;
5454;SDS011;2750;49.050;9.250;2023-04-15T02:22:54;8.27;;;5.80;;
5454;SDS011;2750;49.050;9.250;2023-04-15T02:27:57;8.00;;;5.70;;
5454;SDS011;2750;49.050;9.250;2023-04-15T02:32:59;5.33;;;4.70;;
5454;SDS011;2750;49.050;9.250;2023-04-15T02:38:01;7.23;;;5.50;;
5454;SDS011;2750;49.050;9.250;2023-04-15T02:43:04;9.30;;;6.13;;
5454;SDS011;2750;49.050;9.250;2023-04-15T02:48:06;5.93;;;5.27;;
5454;SDS011;2750;49.050;9.250;2023-04-15T02:53:07;6.93;;;5.93;;
5454;SDS011;2750;49.050;9.250;2023-04-15T02:58:10;9.33;;;6.50;;
5454;SDS011;2750;49.050;9.250;2023-04-15T03:03:12;8.00;;;5.67;;
5454;SDS011;2750;49.050;9.250;2023-04-15T03:08:14;8.80;;;6.33;;
5454;SDS011;2750;49.050;9.250;2023-04-15T03:13:17;9.40;;;7.00;;
5454;SDS011;2750;49.050;9.250;2023-04-15T03:18:19;9.70;;;7.03;;
5454;SDS011;2750;49.050;9.250;2023-04-15T03:23:20;9.47;;;7.27;;
5454;SDS011;2750;49.050;9.250;2023-04-15T03:28:23;10.10;;;7.17;;
5454;SDS011;2750;49.050;9.250;2023-04-15T03:33:25;9.07;;;6.97;;
5454;SDS011;2750;49.050;9.250;2023-04-15T03:38:26;7.40;;;6.60;;
5454;SDS011;2750;49.050;9.250;2023-04-15T03:43:30;10.27;;;6.70;;
5454;SDS011;2750;49.050;9.250;2023-04-15T03:48:31;6.57;;;5.60;;
5454;SDS011;2750;49.050;9.250;2023-04-15T03:53:33;13.67;;;7.67;;
5454;SDS011;2750;49.050;9.250;2023-04-15T03:58:36;9.33;;;6.73;;
5454;SDS011;2750;49.050;9.250;2023-04-15T04:03:37;6.90;;;6.13;;
5454;SDS011;2750;49.050;9.250;2023-04-15T04:08:39;10.00;;;6.23;;
5454;SDS011;2750;49.050;9.250;2023-04-15T04:13:42;8.03;;;6.07;;
5454;SDS011;2750;49.050;9.250;2023-04-15T04:18:44;7.73;;;5.23;;
5454;SDS011;2750;49.050;9.250;2023-04-15T04:23:45;11.03;;;6.47;;
5454;SDS011;2750;49.050;9.250;2023-04-15T04:28:48;7.97;;;6.03;;
5454;SDS011;2750;49.050;9.250;2023-04-15T04:33:50;9.23;;;5.97;;
5454;SDS011;2750;49.050;9.250;2023-04-15T04:38:51;8.50;;;6.33;;
5454;SDS011;2750;49.050;9.250;2023-04-15T04:43:54;11.00;;;5.93;;
5454;SDS011;2750;49.050;9.250;2023-04-15T04:48:56;9.17;;;6.77;;
5454;SDS011;2750;49.050;9.250;2023-04-15T04:53:57;7.93;;;6.33;;
5454;SDS011;2750;49.050;9.250;2023-04-15T04:59:00;11.07;;;7.40;;
5454;SDS011;2750;49.050;9.250;2023-04-15T05:04:02;7.77;;;6.43;;
5454;SDS011;2750;49.050;9.250;2023-04-15T05:09:04;8.77;;;7.17;;
5454;SDS011;2750;49.050;9.250;2023-04-15T05:14:07;9.63;;;6.73;;
5454;SDS011;2750;49.050;9.250;2023-04-15T05:19:08;8.50;;;6.03;;
5454;SDS011;2750;49.050;9.250;2023-04-15T05:24:10;10.90;;;6.83;;
5454;SDS011;2750;49.050;9.250;2023-04-15T05:29:13;11.03;;;6.60;;
5454;SDS011;2750;49.050;9.250;2023-04-15T05:34:14;6.87;;;6.10;;
5454;SDS011;2750;49.050;9.250;2023-04-15T05:39:16;8.70;;;6.20;;
5454;SDS011;2750;49.050;9.250;2023-04-15T05:44:19;6.30;;;4.97;;
5454;SDS011;2750;49.050;9.250;2023-04-15T05:49:21;11.93;;;5.97;;
5454;SDS011;2750;49.050;9.250;2023-04-15T05:54:23;5.63;;;5.00;;
5454;SDS011;2750;49.050;9.250;2023-04-15T05:59:28;9.93;;;5.37;;
5454;SDS011;2750;49.050;9.250;2023-04-15T06:04:30;7.70;;;5.10;;
5454;SDS011;2750;49.050;9.250;2023-04-15T06:09:31;7.87;;;5.40;;
5454;SDS011;2750;49.050;9.250;2023-04-15T06:14:35;11.70;;;6.63;;
5454;SDS011;2750;49.050;9.250;2023-04-15T06:19:36;6.63;;;5.87;;
5454;SDS011;2750;49.050;9.250;2023-04-15T06:24:38;6.20;;;5.43;;
5454;SDS011;2750;49.050;9.250;2023-04-15T06:29:41;7.37;;;4.67;;
5454;SDS011;2750;49.050;9.250;2023-04-15T06:34:43;5.30;;;4.80;;
5454;SDS011;2750;49.050;9.250;2023-04-15T06:39:44;7.77;;;5.67;;
5454;SDS011;2750;49.050;9.250;2023-04-15T06:44:47;7.23;;;6.17;;
5454;SDS011;2750;49.050;9.250;2023-04-15T06:49:49;10.10;;;6.33;;
5454;SDS011;2750;49.050;9.250;2023-04-15T06:54:51;8.90;;;6.40;;
5454;SDS011;2750;49.050;9.250;2023-04-15T06:59:54;6.87;;;5.93;;
5454;SDS011;2750;49.050;9.250;2023-04-15T07:04:56;9.57;;;6.70;;
5454;SDS011;2750;49.050;9.250;2023-04-15T07:09:58;8.13;;;6.80;;
5454;SDS011;2750;49.050;9.250;2023-04-15T07:15:02;6.70;;;5.27;;
5454;SDS011;2750;49.050;9.250;2023-04-15T07:20:05;6.77;;;5.20;;
5454;SDS011;2750;49.050;9.250;2023-04-15T07:25:09;9.43;;;5.90;;
5454;SDS011;2750;49.050;9.250;2023-04-15T07:30:13;6.53;;;5.03;;
5454;SDS011;2750;49.050;9.250;2023-04-15T07:35:15;7.43;;;5.93;;
5454;SDS011;2750;49.050;9.250;2023-04-15T07:40:16;8.77;;;6.33;;
5454;SDS011;2750;49.050;9.250;2023-04-15T07:45:20;8.57;;;6.40;;
5454;SDS011;2750;49.050;9.250;2023-04-15T07:50:21;7.97;;;5.80;;
5454;SDS011;2750;49.050;9.250;2023-04-15T07:55:23;9.10;;;6.27;;
5454;SDS011;2750;49.050;9.250;2023-04-15T08:00:26;6.57;;;5.87;;
5454;SDS011;2750;49.050;9.250;2023-04-15T08:05:28;8.68;;;5.90;;
5454;SDS011;2750;49.050;9.250;2023-04-15T08:10:30;7.43;;;5.95;;
5454;SDS011;2750;49.050;9.250;2023-04-15T08:15:33;8.17;;;6.50;;
5454;SDS011;2750;49.050;9.250;2023-04-15T08:20:34;6.53;;;5.60;;
5454;SDS011;2750;49.050;9.250;2023-04-15T08:25:36;7.43;;;5.63;;
5454;SDS011;2750;49.050;9.250;2023-04-15T08:30:39;7.13;;;5.90;;
5454;SDS011;2750;49.050;9.250;2023-04-15T08:35:41;7.43;;;5.43;;
5454;SDS011;2750;49.050;9.250;2023-04-15T08:40:43;8.53;;;6.07;;
5454;SDS011;2750;49.050;9.250;2023-04-15T08:45:47;7.90;;;5.70;;
5454;SDS011;2750;49.050;9.250;2023-04-15T08:50:50;6.77;;;6.03;;
5454;SDS011;2750;49.050;9.250;2023-04-15T08:55:52;7.27;;;6.30;;
5454;SDS011;2750;49.050;9.250;2023-04-15T09:00:59;11.13;;;6.20;;
5454;SDS011;2750;49.050;9.250;2023-04-15T09:06:03;5.73;;;4.17;;
5454;SDS011;2750;49.050;9.250;2023-04-15T09:11:05;5.33;;;4.27;;
5454;SDS011;2750;49.050;9.250;2023-04-15T09:16:08;6.03;;;3.93;;
5454;SDS011;2750;49.050;9.250;2023-04-15T09:21:10;5.33;;;4.80;;
5454;SDS011;2750;49.050;9.250;2023-04-15T09:26:13;9.30;;;6.17;;
5454;SDS011;2750;49.050;9.250;2023-04-15T09:31:18;7.03;;;4.80;;
5454;SDS011;2750;49.050;9.250;2023-04-15T09:36:35;9.20;;;5.23;;
5454;SDS011;2750;49.050;9.250;2023-04-15T09:41:41;5.43;;;4.93;;
5454;SDS011;2750;49.050;9.250;2023-04-15T09:46:45;6.97;;;4.50;;
5454;SDS011;2750;49.050;9.250;2023-04-15T09:51:47;7.53;;;4.53;;
5454;SDS011;2750;49.050;9.250;2023-04-15T09:56:48;4.43;;;4.03;;
5454;SDS011;2750;49.050;9.250;2023-04-15T10:01:51;5.80;;;4.90;;
5454;SDS011;2750;49.050;9.250;2023-04-15T10:06:53;6.13;;;4.43;;
5454;SDS011;2750;49.050;9.250;2023-04-15T10:11:54;5.87;;;4.57;;
5454;SDS011;2750;49.050;9.250;2023-04-15T10:16:57;7.03;;;4.57;;
5454;SDS011;2750;49.050;9.250;2023-04-15T10:22:02;5.27;;;4.70;;
5454;SDS011;2750;49.050;9.250;2023-04-15T10:27:04;6.53;;;4.13;;
5454;SDS011;2750;49.050;9.250;2023-04-15T10:32:07;5.03;;;3.77;;
5454;SDS011;2750;49.050;9.250;2023-04-15T10:37:10;7.13;;;4.20;;
5454;SDS011;2750;49.050;9.250;2023-04-15T10:42:12;6.13;;;4.37;;
5454;SDS011;2750;49.050;9.250;2023-04-15T10:47:17;4.50;;;4.10;;
5454;SDS011;2750;49.050;9.250;2023-04-15T10:52:21;5.33;;;3.93;;
5454;SDS011;2750;49.050;9.250;2023-04-15T10:57:26;5.87;;;4.33;;
5454;SDS011;2750;49.050;9.250;2023-04-15T11:02:43;4.23;;;3.83;;
5454;SDS011;2750;49.050;9.250;2023-04-15T11:07:47;8.13;;;4.63;;
5454;SDS011;2750;49.050;9.250;2023-04-15T11:12:55;6.37;;;4.30;;
5454;SDS011;2750;49.050;9.250;2023-04-15T11:18:07;5.83;;;3.97;;
5454;SDS011;2750;49.050;9.250;2023-04-15T11:23:11;5.97;;;4.70;;
5454;SDS011;2750;49.050;9.250;2023-04-15T11:28:13;5.40;;;3.80;;
5454;SDS011;2750;49.050;9.250;2023-04-15T11:33:16;4.43;;;3.73;;
5454;SDS011;2750;49.050;9.250;2023-04-15T11:38:18;5.67;;;3.20;;
5454;SDS011;2750;49.050;9.250;2023-04-15T11:43:20;4.17;;;2.50;;
5454;SDS011;2750;49.050;9.250;2023-04-15T11:48:25;4.07;;;2.27;;
5454;SDS011;2750;49.050;9.250;2023-04-15T11:53:35;2.53;;;2.03;;
5454;SDS011;2750;49.050;9.250;2023-04-15T11:58:38;7.10;;;2.67;;
5454;SDS011;2750;49.050;9.250;2023-04-15T12:03:42;3.50;;;1.90;;
5454;SDS011;2750;49.050;9.250;2023-04-15T12:08:56;8.63;;;2.30;;
5454;SDS011;2750;49.050;9.250;2023-04-15T12:14:02;2.53;;;1.80;;
5454;SDS011;2750;49.050;9.250;2023-04-15T12:19:10;2.73;;;1.43;;
5454;SDS011;2750;49.050;9.250;2023-04-15T12:24:14;1.77;;;1.50;;
5454;SDS011;2750;49.050;9.250;2023-04-15T12:29:16;2.67;;;1.63;;
5454;SDS011;2750;49.050;9.250;2023-04-15T12:34:24;4.03;;;2.00;;
5454;SDS011;2750;49.050;9.250;2023-04-15T12:39:29;3.13;;;1.70;;
5454;SDS011;2750;49.050;9.250;2023-04-15T12:44:36;3.87;;;2.50;;
5454;SDS011;2750;49.050;9.250;2023-04-15T12:49:39;1.63;;;1.50;;
5454;SDS011;2750;49.050;9.250;2023-04-15T12:54:41;2.03;;;1.33;;
5454;SDS011;2750;49.050;9.250;2023-04-15T12:59:42;2.37;;;1.70;;
5454;SDS011;2750;49.050;9.250;2023-04-15T13:04:45;2.20;;;1.50;;
5454;SDS011;2750;49.050;9.250;2023-04-15T13:09:47;1.77;;;1.60;;
5454;SDS011;2750;49.050;9.250;2023-04-15T13:14:48;3.10;;;1.27;;
5454;SDS011;2750;49.050;9.250;2023-04-15T13:19:51;3.03;;;1.60;;
5454;SDS011;2750;49.050;9.250;2023-04-15T13:24:53;3.10;;;1.67;;
5454;SDS011;2750;49.050;9.250;2023-04-15T13:29:54;2.97;;;1.17;;
5454;SDS011;2750;49.050;9.250;2023-04-15T13:34:57;1.70;;;1.30;;
5454;SDS011;2750;49.050;9.250;2023-04-15T13:39:59;4.57;;;2.00;;
5454;SDS011;2750;49.050;9.250;2023-04-15T13:45:00;3.97;;;3.10;;
5454;SDS011;2750;49.050;9.250;2023-04-15T13:50:04;3.97;;;3.43;;
5454;SDS011;2750;49.050;9.250;2023-04-15T13:55:06;5.87;;;5.40;;
5454;SDS011;2750;49.050;9.250;2023-04-15T14:00:09;2.33;;;2.07;;
5454;SDS011;2750;49.050;9.250;2023-04-15T14:05:12;2.17;;;1.97;;
5454;SDS011;2750;49.050;9.250;2023-04-15T14:10:14;3.47;;;3.17;;
5454;SDS011;2750;49.050;9.250;2023-04-15T14:15:16;3.17;;;2.30;;
5454;SDS011;2750;49.050;9.250;2023-04-15T14:20:18;2.50;;;2.30;;
5454;SDS011;2750;49.050;9.250;2023-04-15T14:25:20;2.80;;;1.50;;
5454;SDS011;2750;49.050;9.250;2023-04-15T14:30:21;2.23;;;2.00;;
5454;SDS011;2750;49.050;9.250;2023-04-15T14:35:24;2.93;;;2.10;;
5454;SDS011;2750;49.050;9.250;2023-04-15T14:40:26;3.60;;;2.30;;
5454;SDS011;2750;49.050;9.250;2023-04-15T14:45:28;4.07;;;2.40;;
5454;SDS011;2750;49.050;9.250;2023-04-15T14:50:31;3.50;;;2.30;;
5454;SDS011;2750;49.050;9.250;2023-04-15T14:55:33;2.93;;;2.37;;
5454;SDS011;2750;49.050;9.250;2023-04-15T15:00:35;3.30;;;2.00;;
5454;SDS011;2750;49.050;9.250;2023-04-15T15:05:40;2.57;;;1.80;;
5454;SDS011;2750;49.050;9.250;2023-04-15T15:10:43;2.30;;;1.60;;
5454;SDS011;2750;49.050;9.250;2023-04-15T15:15:45;2.10;;;1.90;;
5454;SDS011;2750;49.050;9.250;2023-04-15T15:20:49;2.00;;;1.90;;
5454;SDS011;2750;49.050;9.250;2023-04-15T15:25:51;3.00;;;2.13;;
5454;SDS011;2750;49.050;9.250;2023-04-15T15:30:53;4.10;;;3.70;;
5454;SDS011;2750;49.050;9.250;2023-04-15T15:35:56;3.87;;;3.40;;
5454;SDS011;2750;49.050;9.250;2023-04-15T15:40:57;3.73;;;2.60;;
5454;SDS011;2750;49.050;9.250;2023-04-15T15:45:59;3.43;;;2.93;;
5454;SDS011;2750;49.050;9.250;2023-04-15T15:51:02;4.13;;;3.73;;
5454;SDS011;2750;49.050;9.250;2023-04-15T15:56:04;6.10;;;4.43;;
5454;SDS011;2750;49.050;9.250;2023-04-15T16:01:06;4.47;;;4.07;;
5454;SDS011;2750;49.050;9.250;2023-04-15T16:06:09;4.50;;;4.13;;
5454;SDS011;2750;49.050;9.250;2023-04-15T16:11:10;4.80;;;4.27;;
5454;SDS011;2750;49.050;9.250;2023-04-15T16:16:12;4.37;;;3.97;;
5454;SDS011;2750;49.050;9.250;2023-04-15T16:21:15;4.63;;;3.87;;
5454;SDS011;2750;49.050;9.250;2023-04-15T16:26:17;5.93;;;4.40;;
5454;SDS011;2750;49.050;9.250;2023-04-15T16:31:18;4.63;;;4.23;;
5454;SDS011;2750;49.050;9.250;2023-04-15T16:36:21;3.70;;;3.17;;
5454;SDS011;2750;49.050;9.250;2023-04-15T16:41:23;2.67;;;2.17;;
5454;SDS011;2750;49.050;9.250;2023-04-15T16:46:24;1.83;;;1.73;;
5454;SDS011;2750;49.050;9.250;2023-04-15T16:51:28;1.73;;;1.63;;
5454;SDS011;2750;49.050;9.250;2023-04-15T16:56:30;1.53;;;1.43;;
5454;SDS011;2750;49.050;9.250;2023-04-15T17:01:32;1.97;;;1.80;;
5454;SDS011;2750;49.050;9.250;2023-04-15T17:06:35;2.63;;;2.00;;
5454;SDS011;2750;49.050;9.250;2023-04-15T17:11:36;1.87;;;1.70;;
5454;SDS011;2750;49.050;9.250;2023-04-15T17:16:39;1.50;;;1.40;;
5454;SDS011;2750;49.050;9.250;2023-04-15T17:21:43;1.50;;;1.40;;
5454;SDS011;2750;49.050;9.250;2023-04-15T17:26:45;1.47;;;1.37;;
5454;SDS011;2750;49.050;9.250;2023-04-15T17:31:46;2.37;;;2.00;;
5454;SDS011;2750;49.050;9.250;2023-04-15T17:36:49;1.97;;;1.70;;
5454;SDS011;2750;49.050;9.250;2023-04-15T17:41:52;2.70;;;1.87;;
5454;SDS011;2750;49.050;9.250;2023-04-15T17:46:54;1.63;;;1.50;;
5454;SDS011;2750;49.050;9.250;2023-04-15T17:51:56;2.80;;;2.60;;
5454;SDS011;2750;49.050;9.250;2023-04-15T17:56:58;4.50;;;4.07;;
5454;SDS011;2750;49.050;9.250;2023-04-15T18:02:02;4.30;;;3.90;;
5454;SDS011;2750;49.050;9.250;2023-04-15T18:07:05;2.63;;;2.43;;
5454;SDS011;2750;49.050;9.250;2023-04-15T18:12:06;2.70;;;2.50;;
5454;SDS011;2750;49.050;9.250;2023-04-15T18:17:08;3.60;;;2.67;;
5454;SDS011;2750;49.050;9.250;2023-04-15T18:22:12;2.57;;;2.27;;
5454;SDS011;2750;49.050;9.250;2023-04-15T18:27:13;2.43;;;2.23;;
5454;SDS011;2750;49.050;9.250;2023-04-15T18:32:15;2.87;;;2.67;;
5454;SDS011;2750;49.050;9.250;2023-04-15T18:37:17;2.83;;;2.60;;
5454;SDS011;2750;49.050;9.250;2023-04-15T18:42:19;3.10;;;2.80;;
5454;SDS011;2750;49.050;9.250;2023-04-15T18:47:21;3.60;;;3.10;;
5454;SDS011;2750;49.050;9.250;2023-04-15T18:52:24;4.33;;;3.77;;
5454;SDS011;2750;49.050;9.250;2023-04-15T18:57:26;10.97;;;7.87;;
5454;SDS011;2750;49.050;9.250;2023-04-15T19:02:28;5.27;;;4.47;;
5454;SDS011;2750;49.050;9.250;2023-04-15T19:07:31;5.53;;;5.03;;
5454;SDS011;2750;49.050;9.250;2023-04-15T19:12:33;7.60;;;6.43;;
5454;SDS011;2750;49.050;9.250;2023-04-15T19:17:35;8.80;;;7.90;;
5454;SDS011;2750;49.050;9.250;2023-04-15T19:22:38;8.80;;;7.63;;
5454;SDS011;2750;49.050;9.250;2023-04-15T19:27:40;8.93;;;7.93;;
5454;SDS011;2750;49.050;9.250;2023-04-15T19:32:42;9.60;;;7.03;;
5454;SDS011;2750;49.050;9.250;2023-04-15T19:37:45;9.83;;;7.43;;
5454;SDS011;2750;49.050;9.250;2023-04-15T19:42:47;10.27;;;7.77;;
5454;SDS011;2750;49.050;9.250;2023-04-15T19:47:48;9.83;;;7.70;;
5454;SDS011;2750;49.050;9.250;2023-04-15T19:52:51;11.30;;;8.40;;
5454;SDS011;2750;49.050;9.250;2023-04-15T19:57:53;11.27;;;9.77;;
5454;SDS011;2750;49.050;9.250;2023-04-15T20:02:55;13.67;;;11.43;;
5454;SDS011;2750;49.050;9.250;2023-04-15T20:07:58;13.67;;;10.40;;
5454;SDS011;2750;49.050;9.250;2023-04-15T20:13:00;16.07;;;13.40;;
5454;SDS011;2750;49.050;9.250;2023-04-15T20:18:02;17.63;;;14.77;;
5454;SDS011;2750;49.050;9.250;2023-04-15T20:23:05;16.37;;;12.70;;
5454;SDS011;2750;49.050;9.250;2023-04-15T20:28:07;17.27;;;13.37;;
5454;SDS011;2750;49.050;9.250;2023-04-15T20:33:08;15.87;;;12.57;;
5454;SDS011;2750;49.050;9.250;2023-04-15T20:38:11;12.80;;;9.03;;
5454;SDS011;2750;49.050;9.250;2023-04-15T20:43:14;15.80;;;13.23;;
5454;SDS011;2750;49.050;9.250;2023-04-15T20:48:16;17.63;;;13.97;;
5454;SDS011;2750;49.050;9.250;2023-04-15T20:53:20;19.20;;;15.33;;
5454;SDS011;2750;49.050;9.250;2023-04-15T20:58:21;20.73;;;15.80;;
5454;SDS011;2750;49.050;9.250;2023-04-15T21:03:25;16.53;;;13.63;;
5454;SDS011;2750;49.050;9.250;2023-04-15T21:08:28;17.13;;;12.77;;
5454;SDS011;2750;49.050;9.250;2023-04-15T21:13:30;15.47;;;11.13;;
5454;SDS011;2750;49.050;9.250;2023-04-15T21:18:32;20.67;;;15.47;;
5454;SDS011;2750;49.050;9.250;2023-04-15T21:23:35;20.47;;;15.30;;
5454;SDS011;2750;49.050;9.250;2023-04-15T21:28:36;20.10;;;15.10;;
5454;SDS011;2750;49.050;9.250;2023-04-15T21:33:38;22.03;;;17.07;;
5454;SDS011;2750;49.050;9.250;2023-04-15T21:38:41;22.07;;;16.33;;
5454;SDS011;2750;49.050;9.250;2023-04-15T21:43:42;22.87;;;16.90;;
5454;SDS011;2750;49.050;9.250;2023-04-15T21:48:44;19.83;;;16.07;;
5454;SDS011;2750;49.050;9.250;2023-04-15T21:53:47;21.10;;;14.77;;
5454;SDS011;2750;49.050;9.250;2023-04-15T21:58:48;22.57;;;17.83;;
5454;SDS011;2750;49.050;9.250;2023-04-15T22:03:50;21.50;;;16.70;;
5454;SDS011;2750;49.050;9.250;2023-04-15T22:08:53;20.50;;;16.07;;
5454;SDS011;2750;49.050;9.250;2023-04-15T22:13:55;21.70;;;16.03;;
5454;SDS011;2750;49.050;9.250;2023-04-15T22:18:57;21.67;;;15.07;;
5454;SDS011;2750;49.050;9.250;2023-04-15T22:24:00;21.27;;;15.23;;
5454;SDS011;2750;49.050;9.250;2023-04-15T22:29:01;22.43;;;16.47;;
5454;SDS011;2750;49.050;9.250;2023-04-15T22:34:03;22.13;;;16.80;;
5454;SDS011;2750;49.050;9.250;2023-04-15T22:39:06;24.77;;;17.73;;
5454;SDS011;2750;49.050;9.250;2023-04-15T22:44:07;25.73;;;16.70;;
5454;SDS011;2750;49.050;9.250;2023-04-15T22:49:09;24.27;;;16.67;;
5454;SDS011;2750;49.050;9.250;2023-04-15T22:54:11;25.43;;;15.60;;
5454;SDS011;2750;49.050;9.250;2023-04-15T22:59:13;27.30;;;17.83;;
5454;SDS011;2750;49.050;9.250;2023-04-15T23:04:14;25.80;;;17.80;;
5454;SDS011;2750;49.050;9.250;2023-04-15T23:09:17;27.07;;;18.50;;
5454;SDS011;2750;49.050;9.250;2023-04-15T23:14:19;23.17;;;16.60;;
5454;SDS011;2750;49.050;9.250;2023-04-15T23:19:21;27.20;;;18.73;;
5454;SDS011;2750;49.050;9.250;2023-04-15T23:24:24;25.93;;;17.23;;
5454;SDS011;2750;49.050;9.250;2023-04-15T23:29:25;24.90;;;16.57;;
5454;SDS011;2750;49.050;9.250;2023-04-15T23:34:27;32.67;;;21.17;;
5454;SDS011;2750;49.050;9.250;2023-04-15T23:39:30;28.73;;;20.10;;
5454;SDS011;2750;49.050;9.250;2023-04-15T23:44:31;30.57;;;19.60;;
5454;SDS011;2750;49.050;9.250;2023-04-15T23:49:33;30.40;;;20.43;;
5454;SDS011;2750;49.050;9.250;2023-04-15T23:54:36;27.57;;;17.90;;
5454;SDS011;2750;49.050;9.250;2023-04-15T23:59:38;29.63;;;20.60;;
